createdAt,value
2023-04-15T00:01:37.941Z,10.00
2023-04-15T00:04:05.061Z,10.10
2023-04-15T00:06:31.978Z,10.00
2023-04-15T00:08:59.010Z,10.00
2023-04-15T00:11:26.030Z,10.00
2023-04-15T00:13:53.002Z,10.00
2023-04-15T00:16:19.923Z,10.00
2023-04-15T00:18:46.792Z,10.00
2023-04-15T00:21:13.619Z,10.00
2023-04-15T00:23:40.601Z,10.00
2023-04-15T00:26:07.447Z,9.90
2023-04-15T00:28:34.333Z,9.90
2023-04-15T00:31:01.248Z,9.90
2023-04-15T00:33:28.078Z,9.90
2023-04-15T00:35:54.930Z,9.80
2023-04-15T00:38:21.686Z,9.90
2023-04-15T00:40:48.536Z,9.80
2023-04-15T00:43:17.550Z,9.70
2023-04-15T00:45:44.609Z,9.70
2023-04-15T00:48:12.378Z,9.70
2023-04-15T00:50:39.585Z,9.70
2023-04-15T00:53:06.360Z,9.60
2023-04-15T00:55:33.166Z,9.60
2023-04-15T00:57:59.972Z,9.70
2023-04-15T01:00:27.270Z,9.70
2023-04-15T01:02:54.215Z,9.60
2023-04-15T01:05:21.247Z,9.50
2023-04-15T01:07:48.789Z,9.50
2023-04-15T01:10:15.883Z,9.60
2023-04-15T01:12:43.276Z,9.50
2023-04-15T01:15:11.011Z,9.50
2023-04-15T01:17:39.391Z,9.50
2023-04-15T01:20:10.543Z,9.50
2023-04-15T01:22:38.338Z,9.40
2023-04-15T01:25:18.197Z,9.40
2023-04-15T01:27:45.301Z,9.40
2023-04-15T01:30:12.303Z,9.40
2023-04-15T01:32:39.464Z,9.30
2023-04-15T01:35:07.643Z,9.20
2023-04-15T01:37:34.756Z,9.20
2023-04-15T01:40:01.648Z,9.20
2023-04-15T01:42:28.443Z,9.20
2023-04-15T01:44:55.271Z,9.20
2023-04-15T01:47:22.383Z,9.10
2023-04-15T01:49:49.330Z,9.10
2023-04-15T01:52:16.176Z,9.10
2023-04-15T01:54:43.001Z,9.00
2023-04-15T01:57:10.128Z,9.00
2023-04-15T01:59:37.300Z,9.00
2023-04-15T02:02:05.407Z,9.00
2023-04-15T02:04:32.634Z,8.90
2023-04-15T02:07:00.670Z,8.80
2023-04-15T02:09:27.873Z,8.90
2023-04-15T02:11:54.708Z,8.80
2023-04-15T02:14:21.512Z,8.80
2023-04-15T02:16:48.415Z,8.80
2023-04-15T02:19:16.285Z,8.70
2023-04-15T02:21:43.125Z,8.60
2023-04-15T02:24:10.113Z,8.60
2023-04-15T02:26:37.007Z,8.70
2023-04-15T02:29:04.195Z,8.60
2023-04-15T02:31:33.977Z,8.60
2023-04-15T02:34:02.939Z,8.50
2023-04-15T02:36:31.658Z,8.40
2023-04-15T02:38:58.798Z,8.50
2023-04-15T02:41:28.358Z,8.40
2023-04-15T02:43:55.738Z,8.40
2023-04-15T02:46:23.052Z,8.40
2023-04-15T02:48:50.988Z,8.30
2023-04-15T02:51:22.810Z,8.20
2023-04-15T02:53:50.487Z,8.10
2023-04-15T02:56:19.223Z,8.20
2023-04-15T02:58:46.382Z,8.10
2023-04-15T03:01:13.622Z,8.00
2023-04-15T03:03:41.451Z,7.90
2023-04-15T03:06:08.921Z,7.90
2023-04-15T03:08:36.302Z,7.90
2023-04-15T03:11:03.389Z,7.90
2023-04-15T03:13:30.394Z,7.90
2023-04-15T03:15:58.942Z,7.90
2023-04-15T03:18:26.798Z,7.80
2023-04-15T03:20:53.669Z,7.80
2023-04-15T03:23:20.809Z,7.70
2023-04-15T03:25:48.278Z,7.70
2023-04-15T03:28:15.686Z,7.70
2023-04-15T03:30:42.736Z,7.60
2023-04-15T03:33:09.681Z,7.70
2023-04-15T03:35:37.532Z,7.50
2023-04-15T03:38:04.415Z,7.50
2023-04-15T03:40:31.196Z,7.50
2023-04-15T03:42:57.992Z,7.50
2023-04-15T03:45:25.440Z,7.40
2023-04-15T03:47:52.540Z,7.40
2023-04-15T03:50:19.486Z,7.40
2023-04-15T03:52:46.460Z,7.40
2023-04-15T03:55:13.362Z,7.40
2023-04-15T03:57:40.318Z,7.30
2023-04-15T04:00:10.115Z,7.30
2023-04-15T04:02:39.749Z,7.30
2023-04-15T04:05:06.938Z,7.30
2023-04-15T04:07:33.734Z,7.20
2023-04-15T04:10:00.628Z,7.20
2023-04-15T04:12:27.414Z,7.20
2023-04-15T04:14:54.217Z,7.10
2023-04-15T04:17:21.038Z,7.20
2023-04-15T04:19:47.781Z,7.10
2023-04-15T04:22:14.620Z,7.10
2023-04-15T04:24:41.399Z,7.10
2023-04-15T04:27:08.175Z,7.00
2023-04-15T04:29:34.987Z,7.00
2023-04-15T04:32:01.909Z,7.00
2023-04-15T04:34:28.763Z,6.80
2023-04-15T04:36:55.725Z,6.80
2023-04-15T04:39:22.574Z,6.90
2023-04-15T04:41:50.574Z,6.90
2023-04-15T04:44:17.419Z,6.80
2023-04-15T04:46:44.413Z,6.80
2023-04-15T04:49:11.241Z,6.80
2023-04-15T04:51:38.393Z,6.70
2023-04-15T04:54:05.327Z,6.80
2023-04-15T04:56:32.213Z,6.70
2023-04-15T04:58:59.158Z,6.80
2023-04-15T05:01:27.467Z,6.80
2023-04-15T05:03:55.508Z,6.70
2023-04-15T05:06:22.417Z,6.80
2023-04-15T05:08:49.244Z,6.80
2023-04-15T05:11:16.154Z,6.80
2023-04-15T05:13:42.998Z,6.80
2023-04-15T05:16:09.774Z,6.70
2023-04-15T05:18:36.749Z,6.80
2023-04-15T05:21:03.810Z,6.80
2023-04-15T05:23:30.959Z,6.80
2023-04-15T05:25:57.807Z,6.80
2023-04-15T05:28:24.640Z,6.80
2023-04-15T05:30:51.786Z,6.90
2023-04-15T05:33:19.092Z,6.90
2023-04-15T05:35:46.226Z,6.90
2023-04-15T05:38:13.018Z,6.80
2023-04-15T05:40:39.959Z,6.90
2023-04-15T05:43:06.771Z,6.90
2023-04-15T05:45:33.610Z,6.90
2023-04-15T05:48:00.442Z,6.90
2023-04-15T05:50:27.366Z,7.00
2023-04-15T05:52:54.317Z,7.00
2023-04-15T05:55:21.187Z,7.10
2023-04-15T05:57:48.022Z,7.20
2023-04-15T06:00:15.344Z,7.20
2023-04-15T06:02:42.538Z,7.30
2023-04-15T06:05:10.780Z,7.30
2023-04-15T06:07:38.840Z,7.40
2023-04-15T06:10:07.200Z,7.40
2023-04-15T06:12:34.197Z,7.30
2023-04-15T06:15:01.010Z,7.50
2023-04-15T06:17:28.060Z,7.50
2023-04-15T06:19:55.779Z,7.60
2023-04-15T06:22:23.592Z,7.60
2023-04-15T06:24:51.520Z,7.60
2023-04-15T06:27:18.966Z,7.60
2023-04-15T06:29:46.183Z,7.70
2023-04-15T06:32:13.036Z,7.70
2023-04-15T06:34:40.251Z,7.80
2023-04-15T06:37:07.152Z,7.90
2023-04-15T06:39:34.022Z,8.00
2023-04-15T06:42:01.480Z,8.30
2023-04-15T06:44:29.301Z,8.50
2023-04-15T06:46:56.579Z,8.70
2023-04-15T06:49:23.376Z,8.70
2023-04-15T06:51:51.314Z,8.80
2023-04-15T06:54:18.363Z,9.10
2023-04-15T06:56:45.528Z,9.10
2023-04-15T06:59:12.878Z,9.20
2023-04-15T07:01:42.788Z,9.20
2023-04-15T07:04:09.800Z,9.20
2023-04-15T07:06:36.845Z,9.30
2023-04-15T07:09:05.409Z,9.50
2023-04-15T07:11:32.667Z,9.50
2023-04-15T07:13:59.537Z,9.60
2023-04-15T07:16:28.626Z,9.80
2023-04-15T07:18:57.127Z,9.70
2023-04-15T07:21:25.673Z,9.70
2023-04-15T07:23:52.566Z,9.70
2023-04-15T07:26:19.532Z,9.90
2023-04-15T07:28:47.429Z,9.90
2023-04-15T07:31:14.924Z,10.00
2023-04-15T07:33:41.817Z,10.00
2023-04-15T07:36:09.189Z,10.20
2023-04-15T07:38:35.971Z,10.20
2023-04-15T07:41:03.327Z,10.30
2023-04-15T07:43:30.178Z,10.30
2023-04-15T07:45:56.955Z,10.50
2023-04-15T07:48:23.764Z,10.70
2023-04-15T07:50:50.610Z,10.70
2023-04-15T07:53:17.468Z,10.90
2023-04-15T07:55:44.335Z,11.00
2023-04-15T07:58:11.547Z,11.00
2023-04-15T08:00:38.514Z,10.90
2023-04-15T08:03:05.897Z,11.10
2023-04-15T08:05:33.066Z,11.20
2023-04-15T08:08:00.036Z,11.10
2023-04-15T08:10:27.265Z,11.20
2023-04-15T08:12:55.033Z,11.30
2023-04-15T08:15:22.173Z,11.40
2023-04-15T08:17:49.146Z,11.30
2023-04-15T08:20:16.244Z,11.50
2023-04-15T08:22:43.178Z,11.40
2023-04-15T08:25:10.464Z,11.60
2023-04-15T08:27:37.616Z,11.60
2023-04-15T08:30:05.317Z,11.70
2023-04-15T08:32:32.366Z,11.80
2023-04-15T08:34:59.253Z,12.00
2023-04-15T08:37:26.789Z,12.00
2023-04-15T08:39:53.574Z,12.10
2023-04-15T08:42:31.309Z,12.10
2023-04-15T08:45:03.114Z,12.30
2023-04-15T08:47:34.337Z,12.40
2023-04-15T08:50:04.345Z,12.40
2023-04-15T08:52:32.134Z,12.60
2023-04-15T08:55:03.248Z,12.60
2023-04-15T08:57:30.136Z,12.50
2023-04-15T08:59:57.629Z,12.50
2023-04-15T09:02:27.247Z,12.50
2023-04-15T09:04:54.317Z,12.70
2023-04-15T09:07:21.259Z,12.60
2023-04-15T09:09:48.865Z,12.70
2023-04-15T09:12:16.968Z,12.70
2023-04-15T09:14:49.300Z,13.00
2023-04-15T09:17:21.116Z,13.10
2023-04-15T09:19:48.032Z,13.10
2023-04-15T09:22:15.820Z,13.10
2023-04-15T09:24:43.375Z,13.30
2023-04-15T09:27:11.034Z,13.30
2023-04-15T09:29:37.903Z,13.20
2023-04-15T09:32:15.871Z,13.00
2023-04-15T09:34:43.258Z,12.90
2023-04-15T09:37:11.238Z,12.90
2023-04-15T09:39:52.651Z,12.80
2023-04-15T09:42:26.832Z,12.90
2023-04-15T09:44:54.062Z,13.20
2023-04-15T09:47:31.582Z,13.20
2023-04-15T09:50:00.373Z,13.20
2023-04-15T09:52:28.721Z,13.40
2023-04-15T09:55:00.208Z,13.80
2023-04-15T09:57:36.394Z,13.90
2023-04-15T10:00:08.832Z,14.20
2023-04-15T10:02:37.152Z,13.90
2023-04-15T10:05:04.688Z,13.60
2023-04-15T10:07:32.351Z,13.70
2023-04-15T10:10:02.303Z,14.00
2023-04-15T10:12:31.123Z,13.90
2023-04-15T10:15:07.707Z,13.90
2023-04-15T10:17:37.163Z,14.10
2023-04-15T10:20:06.191Z,14.00
2023-04-15T10:22:33.608Z,13.80
2023-04-15T10:25:01.074Z,14.30
2023-04-15T10:27:28.933Z,14.70
2023-04-15T10:29:57.190Z,14.40
2023-04-15T10:32:27.055Z,14.50
2023-04-15T10:34:55.122Z,14.50
2023-04-15T10:37:37.254Z,14.90
2023-04-15T10:40:34.669Z,14.50
2023-04-15T10:43:03.058Z,14.90
2023-04-15T10:45:37.845Z,15.00
2023-04-15T10:48:08.828Z,14.90
2023-04-15T10:50:37.697Z,14.60
2023-04-15T10:53:07.099Z,14.60
2023-04-15T10:55:35.291Z,14.50
2023-04-15T10:58:03.475Z,14.40
2023-04-15T11:00:32.844Z,14.60
2023-04-15T11:03:08.983Z,14.60
2023-04-15T11:05:41.970Z,15.00
2023-04-15T11:08:13.214Z,15.00
2023-04-15T11:10:39.894Z,15.10
2023-04-15T11:13:25.179Z,14.90
2023-04-15T11:15:56.750Z,14.90
2023-04-15T11:18:28.534Z,14.80
2023-04-15T11:21:09.618Z,15.40
2023-04-15T11:23:41.137Z,15.20
2023-04-15T11:26:12.054Z,14.90
2023-04-15T11:28:44.884Z,15.20
2023-04-15T11:31:17.912Z,15.40
2023-04-15T11:34:01.400Z,15.50
2023-04-15T11:36:31.797Z,15.60
2023-04-15T11:38:59.849Z,14.90
2023-04-15T11:41:27.071Z,14.80
2023-04-15T11:43:53.914Z,14.80
2023-04-15T11:46:22.722Z,14.80
2023-04-15T11:48:49.794Z,14.80
2023-04-15T11:51:16.727Z,15.00
2023-04-15T11:53:49.615Z,14.70
2023-04-15T11:56:26.628Z,14.80
2023-04-15T11:59:02.967Z,14.90
2023-04-15T12:01:39.704Z,15.10
2023-04-15T12:04:20.879Z,15.30
2023-04-15T12:06:49.294Z,15.30
2023-04-15T12:09:16.993Z,15.20
2023-04-15T12:11:57.319Z,15.10
2023-04-15T12:14:29.869Z,14.90
2023-04-15T12:17:05.332Z,15.20
2023-04-15T12:19:42.778Z,15.20
2023-04-15T12:22:11.320Z,15.30
2023-04-15T12:24:40.351Z,15.10
2023-04-15T12:27:09.721Z,15.10
2023-04-15T12:29:39.009Z,15.20
2023-04-15T12:32:14.737Z,15.30
2023-04-15T12:34:50.834Z,14.90
2023-04-15T12:37:17.979Z,14.60
2023-04-15T12:39:48.926Z,14.60
2023-04-15T12:42:17.711Z,14.80
2023-04-15T12:44:44.934Z,14.80
2023-04-15T12:47:13.750Z,14.70
2023-04-15T12:49:41.079Z,14.90
2023-04-15T12:52:08.306Z,15.00
2023-04-15T12:54:35.979Z,15.10
2023-04-15T12:57:05.924Z,14.90
2023-04-15T12:59:33.556Z,14.70
2023-04-15T13:02:01.180Z,14.90
2023-04-15T13:04:30.669Z,14.60
2023-04-15T13:06:57.906Z,14.30
2023-04-15T13:09:25.040Z,14.20
2023-04-15T13:11:52.626Z,14.50
2023-04-15T13:14:19.825Z,14.40
2023-04-15T13:16:47.082Z,14.40
2023-04-15T13:19:14.227Z,14.40
2023-04-15T13:21:41.479Z,14.30
2023-04-15T13:24:09.326Z,14.50
2023-04-15T13:26:36.367Z,14.00
2023-04-15T13:29:04.784Z,14.20
2023-04-15T13:31:31.637Z,14.40
2023-04-15T13:33:58.514Z,14.50
2023-04-15T13:36:26.329Z,14.30
2023-04-15T13:38:53.177Z,14.20
2023-04-15T13:41:21.128Z,14.40
2023-04-15T13:43:47.985Z,14.40
2023-04-15T13:46:15.010Z,14.80
2023-04-15T13:48:41.982Z,14.60
2023-04-15T13:51:08.806Z,14.50
2023-04-15T13:53:38.166Z,14.20
2023-04-15T13:56:10.271Z,14.00
2023-04-15T13:58:38.305Z,14.10
2023-04-15T14:01:07.078Z,13.90
2023-04-15T14:03:38.009Z,13.80
2023-04-15T14:06:06.423Z,13.70
2023-04-15T14:08:33.734Z,13.30
2023-04-15T14:11:00.725Z,13.40
2023-04-15T14:13:27.621Z,13.50
2023-04-15T14:15:54.550Z,13.40
2023-04-15T14:18:21.406Z,13.30
2023-04-15T14:20:48.160Z,13.30
2023-04-15T14:23:15.030Z,13.30
2023-04-15T14:25:41.914Z,13.40
2023-04-15T14:28:08.811Z,13.30
2023-04-15T14:30:35.874Z,13.00
2023-04-15T14:33:03.357Z,12.90
2023-04-15T14:35:30.822Z,12.70
2023-04-15T14:37:58.245Z,12.70
2023-04-15T14:40:25.023Z,12.60
2023-04-15T14:42:51.841Z,12.60
2023-04-15T14:45:18.713Z,12.80
2023-04-15T14:47:45.617Z,12.70
2023-04-15T14:50:12.600Z,12.60
2023-04-15T14:52:39.513Z,12.70
2023-04-15T14:55:07.849Z,12.60
2023-04-15T14:57:34.776Z,12.60
2023-04-15T15:00:01.857Z,12.80
2023-04-15T15:02:38.473Z,12.70
2023-04-15T15:05:06.958Z,12.90
2023-04-15T15:07:33.872Z,12.80
2023-04-15T15:10:00.804Z,12.70
2023-04-15T15:12:27.601Z,12.50
2023-04-15T15:14:56.076Z,12.30
2023-04-15T15:17:23.014Z,12.20
2023-04-15T15:19:49.883Z,12.10
2023-04-15T15:22:18.466Z,12.30
2023-04-15T15:24:46.368Z,12.30
2023-04-15T15:27:13.221Z,12.00
2023-04-15T15:29:40.287Z,12.10
2023-04-15T15:32:07.539Z,11.80
2023-04-15T15:34:34.403Z,11.90
2023-04-15T15:37:01.600Z,11.90
2023-04-15T15:39:28.672Z,11.80
2023-04-15T15:41:55.555Z,11.90
2023-04-15T15:44:22.562Z,11.90
2023-04-15T15:46:51.132Z,11.60
2023-04-15T15:49:18.221Z,11.70
2023-04-15T15:51:45.806Z,11.70
2023-04-15T15:54:13.072Z,11.70
2023-04-15T15:56:39.974Z,11.80
2023-04-15T15:59:06.972Z,11.70
2023-04-15T16:01:34.335Z,11.80
2023-04-15T16:04:01.476Z,11.80
2023-04-15T16:06:28.737Z,11.70
2023-04-15T16:08:55.576Z,11.60
2023-04-15T16:11:23.241Z,11.60
2023-04-15T16:13:50.162Z,11.70
2023-04-15T16:16:17.116Z,11.70
2023-04-15T16:18:43.997Z,11.70
2023-04-15T16:21:11.188Z,11.50
2023-04-15T16:23:38.559Z,11.70
2023-04-15T16:26:06.470Z,11.60
2023-04-15T16:28:33.337Z,11.60
2023-04-15T16:31:00.359Z,11.30
2023-04-15T16:33:27.168Z,11.40
2023-04-15T16:35:53.986Z,11.30
2023-04-15T16:38:21.076Z,11.40
2023-04-15T16:40:47.892Z,11.40
2023-04-15T16:43:14.708Z,11.20
2023-04-15T16:45:41.616Z,11.30
2023-04-15T16:48:08.399Z,11.20
2023-04-15T16:50:37.229Z,11.50
2023-04-15T16:53:04.116Z,11.50
2023-04-15T16:55:31.164Z,11.40
2023-04-15T16:58:03.218Z,11.60
2023-04-15T17:00:32.863Z,11.70
2023-04-15T17:03:01.244Z,11.40
2023-04-15T17:05:29.174Z,11.30
2023-04-15T17:07:56.113Z,11.30
2023-04-15T17:10:23.360Z,11.30
2023-04-15T17:12:52.003Z,11.10
2023-04-15T17:15:19.827Z,11.10
2023-04-15T17:17:46.701Z,11.10
2023-04-15T17:20:14.099Z,11.10
2023-04-15T17:22:41.026Z,11.00
2023-04-15T17:25:08.321Z,11.10
2023-04-15T17:27:35.780Z,11.10
2023-04-15T17:30:02.567Z,10.80
2023-04-15T17:32:32.034Z,11.00
2023-04-15T17:34:59.169Z,10.80
2023-04-15T17:37:26.676Z,10.70
2023-04-15T17:39:53.482Z,10.90
2023-04-15T17:42:21.497Z,10.70
2023-04-15T17:44:48.406Z,10.70
2023-04-15T17:47:15.487Z,10.60
2023-04-15T17:49:42.348Z,10.70
2023-04-15T17:52:09.208Z,10.50
2023-04-15T17:54:36.155Z,10.50
2023-04-15T17:57:03.186Z,10.60
2023-04-15T17:59:30.222Z,10.60
2023-04-15T18:01:58.662Z,10.50
2023-04-15T18:04:26.792Z,10.60
2023-04-15T18:06:54.149Z,10.80
2023-04-15T18:09:21.096Z,10.60
2023-04-15T18:11:48.864Z,10.50
2023-04-15T18:14:30.794Z,10.60
2023-04-15T18:17:00.585Z,10.50
2023-04-15T18:19:27.691Z,10.50
2023-04-15T18:21:54.599Z,10.50
2023-04-15T18:24:22.403Z,10.50
2023-04-15T18:26:49.486Z,10.40
2023-04-15T18:29:16.580Z,10.40
2023-04-15T18:31:43.886Z,10.60
2023-04-15T18:34:11.017Z,10.50
2023-04-15T18:36:38.079Z,10.50
2023-04-15T18:39:05.485Z,10.50
2023-04-15T18:41:32.727Z,10.60
2023-04-15T18:43:59.563Z,10.50
2023-04-15T18:46:27.543Z,10.60
2023-04-15T18:48:54.378Z,10.50
2023-04-15T18:51:21.356Z,10.50
2023-04-15T18:53:48.320Z,10.30
2023-04-15T18:56:15.426Z,10.50
2023-04-15T18:59:09.302Z,10.30
2023-04-15T19:01:31.630Z,10.20
2023-04-15T19:03:59.374Z,10.20
2023-04-15T19:06:27.148Z,10.30
2023-04-15T19:08:54.501Z,10.20
2023-04-15T19:11:21.741Z,10.30
2023-04-15T19:13:48.572Z,10.30
2023-04-15T19:16:15.425Z,10.10
2023-04-15T19:18:42.940Z,10.10
2023-04-15T19:21:14.224Z,10.20
2023-04-15T19:23:42.923Z,10.10
2023-04-15T19:26:11.548Z,10.10
2023-04-15T19:28:38.563Z,10.20
2023-04-15T19:31:05.723Z,10.10
2023-04-15T19:33:32.636Z,10.20
2023-04-15T19:36:06.105Z,10.30
2023-04-15T19:38:37.743Z,10.20
2023-04-15T19:41:04.582Z,10.20
2023-04-15T19:43:32.986Z,10.20
2023-04-15T19:46:00.173Z,10.30
2023-04-15T19:48:27.067Z,10.30
2023-04-15T19:50:53.986Z,10.30
2023-04-15T19:53:20.816Z,10.20
2023-04-15T19:55:48.348Z,10.20
2023-04-15T19:58:15.432Z,10.10
2023-04-15T20:00:42.378Z,10.00
2023-04-15T20:03:09.227Z,9.90
2023-04-15T20:05:36.105Z,10.10
2023-04-15T20:08:03.154Z,10.10
2023-04-15T20:10:31.616Z,9.90
2023-04-15T20:12:58.553Z,10.00
2023-04-15T20:15:25.957Z,9.90
2023-04-15T20:17:52.882Z,10.00
2023-04-15T20:20:20.272Z,9.90
2023-04-15T20:22:47.740Z,10.00
2023-04-15T20:25:14.815Z,9.90
2023-04-15T20:27:41.609Z,9.90
2023-04-15T20:30:09.148Z,10.00
2023-04-15T20:32:36.446Z,10.10
2023-04-15T20:35:07.192Z,10.00
2023-04-15T20:37:34.305Z,10.00
2023-04-15T20:40:01.760Z,10.00
2023-04-15T20:42:34.268Z,10.00
2023-04-15T20:45:01.260Z,10.00
2023-04-15T20:47:28.386Z,10.00
2023-04-15T20:49:55.424Z,10.10
2023-04-15T20:52:22.315Z,10.10
2023-04-15T20:54:49.109Z,9.90
2023-04-15T20:57:19.878Z,9.80
2023-04-15T20:59:46.912Z,9.90
2023-04-15T21:02:13.828Z,10.00
2023-04-15T21:04:40.956Z,10.00
2023-04-15T21:07:07.712Z,10.00
2023-04-15T21:09:34.528Z,10.00
2023-04-15T21:12:02.199Z,10.10
2023-04-15T21:14:29.751Z,10.00
2023-04-15T21:16:59.676Z,10.00
2023-04-15T21:19:26.564Z,10.00
2023-04-15T21:21:53.396Z,10.00
2023-04-15T21:24:20.530Z,10.10
2023-04-15T21:26:47.332Z,10.10
2023-04-15T21:29:14.495Z,10.00
2023-04-15T21:31:41.963Z,9.90
2023-04-15T21:34:09.728Z,10.00
2023-04-15T21:36:38.417Z,10.00
2023-04-15T21:39:06.115Z,10.10
2023-04-15T21:41:33.269Z,10.00
2023-04-15T21:44:00.253Z,9.90
2023-04-15T21:46:32.951Z,10.00
2023-04-15T21:49:00.244Z,9.90
2023-04-15T21:51:27.622Z,10.00
2023-04-15T21:53:54.387Z,10.00
2023-04-15T21:56:23.002Z,10.00
2023-04-15T21:58:49.837Z,10.10
2023-04-15T22:01:17.421Z,10.10
2023-04-15T22:03:44.501Z,10.00
2023-04-15T22:06:13.530Z,10.00
2023-04-15T22:08:55.207Z,10.00
2023-04-15T22:11:27.030Z,10.00
2023-04-15T22:13:54.694Z,10.00
2023-04-15T22:16:21.617Z,9.90
2023-04-15T22:18:48.933Z,10.00
2023-04-15T22:21:15.852Z,10.10
2023-04-15T22:23:46.238Z,10.10
2023-04-15T22:26:13.077Z,10.00
2023-04-15T22:28:39.932Z,10.00
2023-04-15T22:31:06.806Z,9.90
2023-04-15T22:33:33.883Z,9.90
2023-04-15T22:36:01.064Z,10.10
2023-04-15T22:38:27.907Z,10.00
2023-04-15T22:40:54.696Z,10.00
2023-04-15T22:43:21.683Z,9.90
2023-04-15T22:45:54.710Z,9.90
2023-04-15T22:48:21.573Z,9.90
2023-04-15T22:50:48.917Z,10.00
2023-04-15T22:53:17.432Z,9.90
2023-04-15T22:55:48.550Z,10.00
2023-04-15T22:58:17.058Z,9.90
2023-04-15T23:00:44.381Z,9.90
2023-04-15T23:03:11.558Z,10.00
2023-04-15T23:05:40.053Z,10.00
2023-04-15T23:08:07.557Z,10.00
2023-04-15T23:10:34.387Z,9.90
2023-04-15T23:13:01.147Z,9.90
2023-04-15T23:15:28.124Z,9.90
2023-04-15T23:17:54.958Z,9.80
2023-04-15T23:20:21.791Z,9.90
2023-04-15T23:22:48.529Z,9.80
2023-04-15T23:25:15.353Z,9.70
2023-04-15T23:27:42.144Z,9.80
2023-04-15T23:30:09.221Z,9.80
2023-04-15T23:32:36.347Z,9.70
2023-04-15T23:35:03.378Z,9.70
2023-04-15T23:37:33.693Z,9.80
2023-04-15T23:40:00.534Z,9.80
2023-04-15T23:42:27.351Z,9.70
2023-04-15T23:44:54.178Z,9.70
2023-04-15T23:47:21.779Z,9.80
2023-04-15T23:49:48.579Z,9.60
2023-04-15T23:52:15.750Z,9.70
2023-04-15T23:54:42.562Z,9.60
2023-04-15T23:57:09.359Z,9.60
2023-04-15T23:59:36.221Z,9.70
